Time;durP1;ratioP1;P1;durP2;ratioP2;P2;SDS_P1;SDS_P2;PMS_P1;PMS_P2;Temp;Humidity;BMP_temperature;BMP_pressure;BME280_temperature;BME280_humidity;BME280_pressure;Samples;Min_cycle;Max_cycle;Signal;HPM_P1;HPM_P2
2021/12/01 00:02:06;;;;;;;6.47;4.93;;;2.10;99.90;;;;;;5095444;28;20174;-80
2021/12/01 00:04:31;;;;;;;7.53;5.03;;;2.00;99.90;;;;;;5093573;28;20181;-80
2021/12/01 00:06:58;;;;;;;8.83;5.77;;;2.00;99.90;;;;;;5076647;28;20206;-81
2021/12/01 00:09:23;;;;;;;7.87;5.73;;;1.90;99.90;;;;;;5096629;28;20225;-80
2021/12/01 00:11:49;;;;;;;8.20;4.90;;;2.00;99.90;;;;;;5093094;28;20242;-80
2021/12/01 00:14:15;;;;;;;8.03;5.07;;;1.90;99.90;;;;;;5094552;28;20250;-80
2021/12/01 00:16:41;;;;;;;11.10;5.33;;;1.90;99.90;;;;;;5093233;28;20585;-80
2021/12/01 00:19:07;;;;;;;10.50;6.17;;;1.90;99.90;;;;;;5076867;28;20186;-80
2021/12/01 00:21:32;;;;;;;8.23;4.97;;;1.80;99.90;;;;;;5076340;28;20248;-80
2021/12/01 00:23:58;;;;;;;8.27;5.63;;;1.90;99.90;;;;;;5095124;28;20182;-81
2021/12/01 00:26:24;;;;;;;9.70;5.40;;;;;;;;;;5094051;28;20202;-81
2021/12/01 00:28:50;;;;;;;8.83;5.80;;;1.80;99.90;;;;;;5093665;28;20197;-80
2021/12/01 00:31:16;;;;;;;7.30;5.10;;;1.80;99.90;;;;;;5076061;28;20188;-81
2021/12/01 00:33:42;;;;;;;9.33;5.67;;;1.80;99.90;;;;;;5076110;28;20619;-81
2021/12/01 00:36:13;;;;;;;8.43;5.37;;;1.90;99.90;;;;;;5076234;28;20199;-80
2021/12/01 00:38:39;;;;;;;12.57;5.87;;;1.90;99.90;;;;;;5077604;28;20198;-81
2021/12/01 00:41:07;;;;;;;6.83;4.63;;;2.00;99.90;;;;;;5076525;28;20549;-80
2021/12/01 00:43:35;;;;;;;11.27;5.83;;;2.00;99.90;;;;;;5094281;28;20623;-81
2021/12/01 00:46:14;;;;;;;7.73;5.83;;;2.10;99.90;;;;;;5094323;28;20175;-81
2021/12/01 00:48:40;;;;;;;13.27;8.07;;;2.10;99.90;;;;;;5092980;28;20598;-80
2021/12/01 00:51:07;;;;;;;10.60;8.50;;;2.20;99.90;;;;;;5094066;28;20222;-81
2021/12/01 00:53:32;;;;;;;13.77;7.70;;;2.10;99.90;;;;;;5093453;28;20183;-80
2021/12/01 00:55:58;;;;;;;11.07;7.00;;;2.20;99.90;;;;;;5094254;28;20201;-80
2021/12/01 00:58:24;;;;;;;10.67;7.20;;;2.30;99.90;;;;;;5094071;28;20185;-80
2021/12/01 01:00:50;;;;;;;17.20;8.77;;;2.30;99.90;;;;;;5094119;28;20179;-80
2021/12/01 01:03:17;;;;;;;12.90;7.57;;;2.30;99.90;;;;;;5094229;28;20183;-80
2021/12/01 01:05:43;;;;;;;13.57;8.73;;;;;;;;;;5093907;28;20192;-80
2021/12/01 01:08:09;;;;;;;15.23;9.27;;;2.20;99.90;;;;;;5093734;28;20321;-80
2021/12/01 01:18:47;;;;;;;10.40;8.70;;;2.30;99.90;;;;;;5095146;28;20302;-81
2021/12/01 01:21:14;;;;;;;14.17;7.90;;;2.40;99.90;;;;;;5093064;28;20206;-80
2021/12/01 01:23:40;;;;;;;10.03;6.60;;;2.40;99.90;;;;;;5094166;28;20183;-81
2021/12/01 01:26:08;;;;;;;11.80;8.33;;;2.40;99.90;;;;;;5092989;28;20187;-80
2021/12/01 01:28:34;;;;;;;11.90;7.70;;;2.40;99.90;;;;;;5093950;28;20187;-81
2021/12/01 01:31:00;;;;;;;11.37;7.37;;;2.40;99.90;;;;;;5076392;28;20182;-80
2021/12/01 01:33:26;;;;;;;10.13;6.87;;;2.30;99.90;;;;;;5093593;28;20178;-81
2021/12/01 01:35:52;;;;;;;12.13;7.57;;;2.30;99.90;;;;;;5093116;28;20279;-80
2021/12/01 01:38:19;;;;;;;9.23;6.03;;;2.40;99.90;;;;;;5092809;28;20190;-80
2021/12/01 01:40:44;;;;;;;11.37;8.20;;;2.40;99.90;;;;;;5094763;28;20175;-81
2021/12/01 01:43:11;;;;;;;15.37;7.83;;;2.40;99.90;;;;;;5094952;28;20266;-80
2021/12/01 01:45:37;;;;;;;12.53;7.63;;;2.40;99.90;;;;;;5096050;28;20670;-81
2021/12/01 01:48:05;;;;;;;13.23;7.87;;;2.30;99.90;;;;;;5096703;28;20199;-81
2021/12/01 01:50:36;;;;;;;13.83;7.67;;;2.30;99.90;;;;;;5108776;28;20189;-80
2021/12/01 01:53:06;;;;;;;11.93;7.73;;;2.30;99.90;;;;;;5118399;28;20186;-80
2021/12/01 01:55:32;;;;;;;10.60;7.90;;;2.30;99.90;;;;;;5118279;28;20163;-81
2021/12/01 01:57:58;;;;;;;13.77;8.30;;;2.20;99.90;;;;;;5118351;28;20241;-81
2021/12/01 02:00:25;;;;;;;14.50;10.00;;;2.10;99.90;;;;;;5113628;28;20187;-81
2021/12/01 02:02:52;;;;;;;15.43;8.77;;;2.00;99.90;;;;;;5096487;28;20178;-81
2021/12/01 02:05:17;;;;;;;14.53;9.17;;;1.80;99.90;;;;;;5096676;28;20183;-81
2021/12/01 02:07:44;;;;;;;14.97;9.50;;;1.80;99.90;;;;;;5115714;28;20258;-81
2021/12/01 02:10:10;;;;;;;13.83;9.27;;;1.80;99.90;;;;;;5100586;28;20197;-81
2021/12/01 02:12:39;;;;;;;17.50;11.30;;;1.80;99.90;;;;;;5117277;28;20214;-81
2021/12/01 02:15:06;;;;;;;18.47;10.70;;;1.80;99.90;;;;;;5110866;28;20185;-81
2021/12/01 02:17:31;;;;;;;17.70;10.70;;;1.80;99.90;;;;;;5080499;28;20236;-81
2021/12/01 02:19:57;;;;;;;17.50;11.00;;;1.80;99.90;;;;;;5078872;28;20187;-81
2021/12/01 02:22:23;;;;;;;14.57;9.63;;;;;;;;;;5095429;28;20265;-81
2021/12/01 02:24:49;;;;;;;15.30;9.90;;;1.80;99.90;;;;;;5097066;28;20624;-81
2021/12/01 02:27:15;;;;;;;17.80;10.97;;;1.80;99.90;;;;;;5095588;28;20249;-81
2021/12/01 02:29:41;;;;;;;13.23;8.20;;;1.80;99.90;;;;;;5095751;28;20178;-81
2021/12/01 02:32:07;;;;;;;16.07;9.23;;;1.80;99.90;;;;;;5096921;28;20178;-80
2021/12/01 02:34:35;;;;;;;19.27;10.57;;;1.80;99.90;;;;;;5096453;28;20631;-81
2021/12/01 02:37:01;;;;;;;13.53;7.73;;;1.80;99.90;;;;;;5096690;28;20197;-81
2021/12/01 02:39:27;;;;;;;12.43;8.40;;;1.70;99.90;;;;;;5096868;28;20185;-81
2021/12/01 02:41:55;;;;;;;11.60;8.87;;;1.50;99.90;;;;;;5096480;28;20187;-81
2021/12/01 02:44:22;;;;;;;13.70;8.63;;;1.40;99.90;;;;;;5097206;28;20186;-81
2021/12/01 02:46:48;;;;;;;14.20;10.03;;;1.20;99.90;;;;;;5095198;28;20288;-81
2021/12/01 02:49:19;;;;;;;15.93;8.87;;;1.20;99.90;;;;;;5096355;28;20183;-81
2021/12/01 02:51:48;;;;;;;14.33;10.17;;;1.20;99.90;;;;;;5097242;28;20204;-81
2021/12/01 02:54:14;;;;;;;14.20;9.40;;;1.10;99.90;;;;;;5095053;28;20206;-81
2021/12/01 02:56:46;;;;;;;17.70;10.13;;;1.00;99.90;;;;;;5097991;28;20194;-81
2021/12/01 02:59:13;;;;;;;15.90;9.50;;;1.00;99.90;;;;;;5097121;28;20212;-82
2021/12/01 03:01:39;;;;;;;19.90;11.07;;;0.90;99.90;;;;;;5094983;28;20216;-80
2021/12/01 03:04:05;;;;;;;15.13;8.67;;;0.90;99.90;;;;;;5096328;28;20629;-81
2021/12/01 03:06:33;;;;;;;18.37;11.23;;;0.90;99.90;;;;;;5094710;28;20535;-81
2021/12/01 03:09:00;;;;;;;12.90;8.97;;;0.90;99.90;;;;;;5077858;28;20182;-81
2021/12/01 03:11:26;;;;;;;16.10;8.43;;;0.90;99.90;;;;;;5095923;28;20264;-81
2021/12/01 03:13:54;;;;;;;16.93;9.10;;;0.90;99.90;;;;;;5094579;28;20210;-81
2021/12/01 03:16:20;;;;;;;18.93;9.27;;;0.90;99.90;;;;;;5094537;28;20201;-87
2021/12/01 03:18:46;;;;;;;29.63;12.73;;;0.90;99.90;;;;;;5096079;28;20174;-81
2021/12/01 03:21:12;;;;;;;22.17;10.63;;;0.90;99.90;;;;;;5094582;28;20265;-81
2021/12/01 03:23:39;;;;;;;20.13;10.07;;;1.00;99.90;;;;;;5095272;28;20627;-81
2021/12/01 03:26:04;;;;;;;27.03;10.67;;;1.00;99.90;;;;;;5094665;28;20684;-81
2021/12/01 03:28:30;;;;;;;26.27;10.17;;;1.00;99.90;;;;;;5095221;28;20222;-81
2021/12/01 03:30:56;;;;;;;19.90;9.93;;;1.00;99.90;;;;;;5094654;28;20179;-81
2021/12/01 03:33:22;;;;;;;19.40;8.87;;;1.00;99.90;;;;;;5077448;28;20561;-81
2021/12/01 03:35:51;;;;;;;25.37;11.63;;;1.00;99.90;;;;;;5094364;28;20190;-80
2021/12/01 03:38:18;;;;;;;22.57;10.17;;;1.00;99.90;;;;;;5094530;28;20262;-81
2021/12/01 03:40:45;;;;;;;13.40;7.60;;;1.00;99.90;;;;;;5095243;28;20189;-81
2021/12/01 03:43:10;;;;;;;17.60;8.93;;;1.00;99.90;;;;;;5077512;28;20209;-81
2021/12/01 03:45:36;;;;;;;16.83;9.67;;;1.10;99.90;;;;;;5093993;28;20214;-81
2021/12/01 03:48:02;;;;;;;17.50;8.80;;;1.10;99.90;;;;;;5095037;28;20252;-81
2021/12/01 03:50:28;;;;;;;18.30;9.80;;;1.00;99.90;;;;;;5095031;28;20174;-81
2021/12/01 03:52:54;;;;;;;16.17;9.53;;;1.10;99.90;;;;;;5095030;28;20667;-81
2021/12/01 03:55:20;;;;;;;22.27;11.57;;;1.10;99.90;;;;;;5094019;28;20228;-81
2021/12/01 03:57:46;;;;;;;18.10;9.40;;;1.10;99.90;;;;;;5093807;28;20924;-81
2021/12/01 04:00:15;;;;;;;13.37;8.10;;;1.10;99.90;;;;;;5077279;28;20564;-81
2021/12/01 04:02:42;;;;;;;18.70;9.37;;;1.10;99.90;;;;;;5094979;28;20174;-81
2021/12/01 04:05:09;;;;;;;18.20;10.13;;;1.10;99.90;;;;;;5095265;28;20201;-81
2021/12/01 04:07:34;;;;;;;17.30;9.87;;;1.10;99.90;;;;;;5094614;28;20259;-81
2021/12/01 04:10:02;;;;;;;16.53;9.83;;;1.10;99.90;;;;;;5095394;28;20190;-82
2021/12/01 04:12:28;;;;;;;16.73;9.33;;;1.10;99.90;;;;;;5099138;28;20281;-86
2021/12/01 04:14:54;;;;;;;18.90;9.30;;;1.20;99.90;;;;;;5095012;28;20235;-82
2021/12/01 04:17:20;;;;;;;16.87;10.83;;;1.10;99.90;;;;;;5077764;28;20218;-82
2021/12/01 04:19:45;;;;;;;19.63;11.20;;;1.10;99.90;;;;;;5094974;28;20615;-82
2021/12/01 04:22:11;;;;;;;19.80;9.87;;;1.20;99.90;;;;;;5093714;28;20179;-82
2021/12/01 04:24:37;;;;;;;18.23;10.40;;;1.20;99.90;;;;;;5093621;28;20623;-82
2021/12/01 04:27:04;;;;;;;22.77;11.13;;;1.10;99.90;;;;;;5094810;28;20202;-82
2021/12/01 04:29:30;;;;;;;15.40;9.67;;;;;;;;;;5093564;28;20680;-87
2021/12/01 04:31:56;;;;;;;15.67;9.57;;;1.10;99.90;;;;;;5094720;28;20179;-82
2021/12/01 04:34:22;;;;;;;17.00;9.80;;;1.10;99.90;;;;;;5094438;28;20188;-81
2021/12/01 04:36:50;;;;;;;17.37;9.67;;;1.10;99.90;;;;;;5094210;28;20658;-81
2021/12/01 04:39:17;;;;;;;16.00;10.00;;;1.40;99.90;;;;;;5093464;28;20182;-82
2021/12/01 04:41:55;;;;;;;13.73;7.93;;;1.20;99.90;;;;;;5098096;28;20580;-81
2021/12/01 04:44:22;;;;;;;18.67;10.70;;;1.10;99.90;;;;;;5097804;28;20182;-81
2021/12/01 04:46:49;;;;;;;18.60;10.03;;;1.20;99.90;;;;;;5076434;28;20213;-82
2021/12/01 04:49:20;;;;;;;17.70;9.97;;;1.30;99.90;;;;;;5076597;28;20221;-82
2021/12/01 04:51:52;;;;;;;17.60;10.37;;;1.20;99.90;;;;;;5094570;28;20167;-82
2021/12/01 04:54:19;;;;;;;19.07;10.73;;;1.20;99.90;;;;;;5092317;28;20268;-81
2021/12/01 04:56:46;;;;;;;17.83;10.17;;;1.20;99.90;;;;;;5090776;28;20239;-85
2021/12/01 04:59:13;;;;;;;28.23;12.43;;;1.20;99.90;;;;;;5091691;28;20187;-80
2021/12/01 05:01:41;;;;;;;17.67;11.00;;;1.10;99.90;;;;;;5092873;28;20634;-81
2021/12/01 05:04:08;;;;;;;18.77;10.33;;;1.10;99.90;;;;;;5081660;28;20663;-81
2021/12/01 05:06:34;;;;;;;17.57;10.13;;;1.20;99.90;;;;;;5087142;28;20218;-80
2021/12/01 05:08:59;;;;;;;20.67;11.73;;;1.20;99.90;;;;;;5090395;28;20182;-81
2021/12/01 05:11:25;;;;;;;21.00;10.73;;;1.20;99.90;;;;;;5092792;28;20575;-81
2021/12/01 05:13:52;;;;;;;16.50;9.73;;;1.20;99.90;;;;;;5091587;28;20210;-81
2021/12/01 05:16:18;;;;;;;17.67;9.53;;;1.20;99.90;;;;;;5087089;28;20206;-81
2021/12/01 05:18:43;;;;;;;18.80;10.97;;;1.20;99.90;;;;;;5064402;28;20682;-81
2021/12/01 05:21:09;;;;;;;21.47;11.07;;;1.10;99.90;;;;;;5091407;28;20179;-81
2021/12/01 05:23:35;;;;;;;19.07;11.00;;;1.20;99.90;;;;;;5091986;28;20262;-81
2021/12/01 05:26:00;;;;;;;19.33;13.20;;;1.20;99.90;;;;;;5082757;28;20226;-82
2021/12/01 05:28:27;;;;;;;17.93;11.27;;;1.10;99.90;;;;;;5090866;28;20202;-81
2021/12/01 05:30:52;;;;;;;19.43;10.53;;;1.20;99.90;;;;;;5090473;28;20198;-81
2021/12/01 05:33:18;;;;;;;15.63;9.77;;;1.20;99.90;;;;;;5074579;28;20190;-81
2021/12/01 05:35:46;;;;;;;17.97;10.57;;;1.10;99.90;;;;;;5070519;28;20201;-80
2021/12/01 05:38:13;;;;;;;15.57;8.83;;;1.20;99.90;;;;;;5089968;28;20233;-80
2021/12/01 05:40:39;;;;;;;17.80;10.83;;;1.20;99.90;;;;;;5091667;28;20636;-80
2021/12/01 05:43:05;;;;;;;19.60;11.30;;;1.20;99.90;;;;;;5092314;28;20186;-82
2021/12/01 05:45:31;;;;;;;21.43;11.70;;;1.20;99.90;;;;;;5091798;28;20236;-83
2021/12/01 05:47:57;;;;;;;21.37;11.27;;;1.20;99.90;;;;;;5091148;28;20210;-80
2021/12/01 05:50:24;;;;;;;21.30;11.30;;;1.10;99.90;;;;;;5092070;28;20201;-81
2021/12/01 05:52:50;;;;;;;18.43;11.53;;;;;;;;;;5095347;28;20190;-81
2021/12/01 05:55:16;;;;;;;20.13;12.10;;;1.20;99.90;;;;;;5094354;28;20653;-81
2021/12/01 05:57:41;;;;;;;24.37;13.93;;;1.20;99.90;;;;;;5095253;28;20190;-81
2021/12/01 06:00:11;;;;;;;26.30;13.43;;;1.20;99.90;;;;;;5086338;28;20659;-81
2021/12/01 06:02:38;;;;;;;22.47;13.03;;;1.20;99.90;;;;;;5085795;28;20172;-81
2021/12/01 06:05:05;;;;;;;21.20;12.37;;;1.20;99.90;;;;;;5085804;28;20182;-81
2021/12/01 06:07:30;;;;;;;22.00;13.13;;;1.10;99.90;;;;;;5079276;28;20201;-81
2021/12/01 06:10:01;;;;;;;24.40;14.40;;;1.20;99.90;;;;;;5095218;28;20193;-81
2021/12/01 06:12:28;;;;;;;22.70;14.17;;;1.20;99.90;;;;;;5096763;28;20763;-82
2021/12/01 06:14:55;;;;;;;21.83;14.17;;;0.90;99.90;;;;;;5095698;28;20185;-82
2021/12/01 06:17:21;;;;;;;22.97;12.87;;;;;;;;;;5097142;28;20185;-82
2021/12/01 06:19:46;;;;;;;22.60;14.07;;;1.20;99.90;;;;;;5078465;28;20185;-82
2021/12/01 06:22:12;;;;;;;21.60;13.10;;;1.20;99.90;;;;;;5095542;28;20258;-81
2021/12/01 06:24:38;;;;;;;26.07;13.40;;;1.20;99.90;;;;;;5096830;28;20179;-82
2021/12/01 06:27:04;;;;;;;22.07;12.97;;;1.20;99.90;;;;;;5096455;28;20202;-82
2021/12/01 06:29:30;;;;;;;24.27;12.97;;;;;;;;;;5096546;28;20209;-81
2021/12/01 06:31:56;;;;;;;23.73;13.60;;;1.20;99.90;;;;;;5096402;28;20217;-81
2021/12/01 06:34:22;;;;;;;24.07;12.53;;;;;;;;;;5096181;28;20206;-81
2021/12/01 06:36:48;;;;;;;22.70;12.80;;;1.20;99.90;;;;;;5094880;28;20211;-85
2021/12/01 06:39:14;;;;;;;23.33;12.03;;;1.20;99.90;;;;;;5094525;28;20616;-81
2021/12/01 06:41:40;;;;;;;22.63;11.80;;;1.20;99.90;;;;;;5095082;28;20182;-81
2021/12/01 06:44:06;;;;;;;24.70;13.50;;;1.20;99.90;;;;;;5077729;28;20220;-84
2021/12/01 06:46:32;;;;;;;23.67;13.90;;;1.20;99.90;;;;;;5085935;28;20193;-85
2021/12/01 06:48:58;;;;;;;24.53;13.03;;;1.30;99.90;;;;;;5089079;28;20182;-82
2021/12/01 06:51:25;;;;;;;26.93;13.23;;;1.20;99.90;;;;;;5093480;28;20206;-81
2021/12/01 06:53:51;;;;;;;26.33;13.90;;;1.20;99.90;;;;;;5094064;28;20194;-87
2021/12/01 06:56:18;;;;;;;27.20;13.77;;;1.10;99.90;;;;;;5093088;28;20190;-81
2021/12/01 06:58:45;;;;;;;27.00;13.50;;;1.20;99.90;;;;;;5091853;28;20189;-82
2021/12/01 07:01:12;;;;;;;23.63;13.37;;;1.10;99.90;;;;;;5093890;28;20206;-81
2021/12/01 07:03:38;;;;;;;25.20;13.07;;;1.20;99.90;;;;;;5093320;28;20178;-82
2021/12/01 07:06:04;;;;;;;24.77;13.03;;;1.20;99.90;;;;;;5092862;28;20190;-82
2021/12/01 07:08:30;;;;;;;22.50;12.30;;;1.20;99.90;;;;;;5094344;28;20318;-82
2021/12/01 07:10:56;;;;;;;24.13;13.77;;;1.20;99.90;;;;;;5076333;28;20274;-82
2021/12/01 07:13:22;;;;;;;26.70;13.37;;;1.10;99.90;;;;;;5093790;28;20175;-82
2021/12/01 07:15:47;;;;;;;23.07;12.47;;;1.10;99.90;;;;;;5093277;28;20698;-82
2021/12/01 07:18:13;;;;;;;21.60;11.17;;;1.10;99.90;;;;;;5094063;28;20197;-83
2021/12/01 07:20:39;;;;;;;27.97;14.63;;;1.20;99.90;;;;;;5093729;28;20186;-83
2021/12/01 07:23:05;;;;;;;28.13;16.53;;;1.20;99.90;;;;;;5093847;28;20235;-83
2021/12/01 07:25:32;;;;;;;29.77;16.27;;;1.20;99.90;;;;;;5093152;28;20291;-82
2021/12/01 07:27:58;;;;;;;36.80;21.13;;;1.10;99.90;;;;;;5092468;28;20754;-82
2021/12/01 07:30:24;;;;;;;36.60;20.50;;;1.10;99.90;;;;;;5093749;28;20648;-81
2021/12/01 07:32:50;;;;;;;25.30;14.50;;;1.10;99.90;;;;;;5094314;28;20212;-83
2021/12/01 07:35:17;;;;;;;23.57;13.73;;;1.10;99.90;;;;;;5093740;28;20691;-82
2021/12/01 07:37:43;;;;;;;22.83;12.80;;;1.10;99.90;;;;;;5093892;28;20183;-81
2021/12/01 07:40:10;;;;;;;22.80;13.30;;;1.20;99.90;;;;;;5093950;28;20173;-81
2021/12/01 07:42:36;;;;;;;31.27;14.87;;;1.10;99.90;;;;;;5094363;28;20179;-82
2021/12/01 07:45:05;;;;;;;22.60;13.63;;;1.10;99.90;;;;;;5094025;28;20234;-81
2021/12/01 07:47:32;;;;;;;28.03;12.93;;;1.10;99.90;;;;;;5077849;28;20206;-81
2021/12/01 07:49:58;;;;;;;22.23;12.60;;;1.10;99.90;;;;;;5094439;28;20183;-84
2021/12/01 07:52:24;;;;;;;23.97;13.50;;;1.10;99.90;;;;;;5077417;28;20178;-80
2021/12/01 07:54:49;;;;;;;21.40;12.63;;;1.20;99.90;;;;;;5095492;28;20533;-81
2021/12/01 07:57:15;;;;;;;22.57;12.37;;;1.10;99.90;;;;;;5093565;28;20190;-82
2021/12/01 07:59:41;;;;;;;20.83;9.80;;;1.20;99.90;;;;;;5095172;28;20189;-81
2021/12/01 08:02:07;;;;;;;19.50;11.07;;;1.20;99.90;;;;;;5110910;28;20179;-81
2021/12/01 08:04:33;;;;;;;22.80;12.43;;;1.30;99.90;;;;;;5094640;28;20181;-81
2021/12/01 08:07:00;;;;;;;19.50;11.33;;;1.30;99.90;;;;;;5093769;28;20202;-82
2021/12/01 08:09:26;;;;;;;25.13;13.87;;;1.40;99.90;;;;;;5097753;28;20187;-83
2021/12/01 08:11:53;;;;;;;25.47;13.53;;;1.40;99.90;;;;;;5113585;28;20257;-83
2021/12/01 08:14:20;;;;;;;23.97;13.07;;;1.40;99.90;;;;;;5102326;28;20214;-82
2021/12/01 08:16:45;;;;;;;21.43;13.20;;;1.50;99.90;;;;;;5081635;28;20262;-81
2021/12/01 08:19:11;;;;;;;25.53;13.30;;;1.50;99.90;;;;;;5079153;28;20615;-80
2021/12/01 08:21:37;;;;;;;18.93;11.00;;;1.40;99.90;;;;;;5085946;28;20213;-82
2021/12/01 08:24:04;;;;;;;20.50;12.43;;;1.40;99.90;;;;;;5093472;28;20186;-82
2021/12/01 08:26:30;;;;;;;19.60;11.47;;;1.40;99.90;;;;;;5093929;28;20210;-81
2021/12/01 08:28:55;;;;;;;18.77;10.80;;;1.40;99.90;;;;;;5093825;28;20191;-80
2021/12/01 08:31:22;;;;;;;18.87;11.87;;;1.30;99.90;;;;;;5096069;28;20182;-80
2021/12/01 08:33:48;;;;;;;21.30;12.27;;;1.30;99.90;;;;;;5096691;28;20201;-80
2021/12/01 08:36:15;;;;;;;17.57;9.23;;;1.40;99.90;;;;;;5098278;28;20619;-80
2021/12/01 08:38:41;;;;;;;19.27;11.23;;;1.40;99.90;;;;;;5097839;28;20182;-81
2021/12/01 08:41:07;;;;;;;18.53;11.97;;;1.40;99.90;;;;;;5111799;28;20178;-87
2021/12/01 08:43:35;;;;;;;21.83;13.60;;;1.40;99.90;;;;;;5118602;28;20163;-81
2021/12/01 08:46:02;;;;;;;27.27;11.33;;;1.40;99.90;;;;;;5118583;28;20175;-81
2021/12/01 08:48:27;;;;;;;21.83;12.17;;;1.40;99.90;;;;;;5105739;28;20190;-81
2021/12/01 08:50:56;;;;;;;19.50;11.47;;;1.40;99.90;;;;;;5098184;28;20185;-79
2021/12/01 08:53:22;;;;;;;21.83;13.50;;;1.50;99.90;;;;;;5083532;28;20174;-80
2021/12/01 08:55:48;;;;;;;19.60;11.50;;;1.50;99.90;;;;;;5096691;28;20178;-80
2021/12/01 08:58:15;;;;;;;20.83;12.00;;;1.60;99.90;;;;;;5109872;28;20186;-79
2021/12/01 09:00:44;;;;;;;17.53;10.90;;;1.60;99.90;;;;;;5119150;28;20178;-79
2021/12/01 09:03:14;;;;;;;18.10;9.83;;;1.60;99.90;;;;;;5118382;28;20159;-89
2021/12/01 09:05:41;;;;;;;18.27;10.63;;;1.60;99.90;;;;;;5118240;28;20277;-80
2021/12/01 09:08:07;;;;;;;17.33;10.47;;;1.50;99.90;;;;;;5095663;28;20200;-80
2021/12/01 09:10:34;;;;;;;18.87;11.10;;;1.40;99.90;;;;;;5090576;28;20220;-80
2021/12/01 09:13:00;;;;;;;12.70;7.77;;;1.40;99.90;;;;;;5079694;28;20223;-80
2021/12/01 09:15:26;;;;;;;16.27;9.70;;;1.40;99.90;;;;;;5072251;28;20189;-80
2021/12/01 09:17:52;;;;;;;18.13;9.93;;;1.40;99.90;;;;;;5055916;28;20545;-80
2021/12/01 09:20:18;;;;;;;17.93;11.33;;;1.40;99.90;;;;;;5073530;28;20178;-80
2021/12/01 09:22:44;;;;;;;16.43;9.47;;;1.50;99.90;;;;;;5072535;28;20528;-80
2021/12/01 09:25:10;;;;;;;15.83;8.90;;;1.50;99.90;;;;;;5072105;28;20203;-80
2021/12/01 09:27:36;;;;;;;17.10;11.17;;;1.60;99.90;;;;;;5072270;28;20740;-80
2021/12/01 09:30:03;;;;;;;19.30;11.37;;;1.70;99.90;;;;;;5073723;28;20179;-80
2021/12/01 09:32:29;;;;;;;17.40;10.77;;;1.80;99.90;;;;;;5072131;28;20175;-80
2021/12/01 09:34:54;;;;;;;15.57;9.83;;;1.80;99.90;;;;;;5073867;28;20639;-79
2021/12/01 09:37:20;;;;;;;17.37;8.60;;;2.10;99.90;;;;;;5072179;28;20595;-80
2021/12/01 09:39:46;;;;;;;17.17;8.67;;;2.10;99.90;;;;;;5055713;28;20180;-80
2021/12/01 09:42:12;;;;;;;14.40;8.67;;;2.10;99.90;;;;;;5073676;28;20179;-80
2021/12/01 09:44:39;;;;;;;15.00;9.00;;;2.00;99.90;;;;;;5072237;28;20260;-80
2021/12/01 09:47:06;;;;;;;13.83;9.20;;;2.00;99.90;;;;;;5072676;28;20215;-80
2021/12/01 09:49:32;;;;;;;13.50;8.43;;;2.20;99.90;;;;;;5073462;28;20190;-81
2021/12/01 09:51:57;;;;;;;11.83;7.47;;;2.30;99.90;;;;;;5055626;28;20262;-80
2021/12/01 09:54:23;;;;;;;13.63;7.73;;;2.30;99.90;;;;;;5071788;28;20177;-81
2021/12/01 09:56:49;;;;;;;13.27;8.00;;;2.10;99.90;;;;;;5073274;28;20555;-80
2021/12/01 09:59:15;;;;;;;12.97;8.77;;;2.20;99.90;;;;;;5073491;28;20685;-80
2021/12/01 10:01:42;;;;;;;14.60;8.20;;;2.30;99.90;;;;;;5073734;28;20182;-80
2021/12/01 10:04:08;;;;;;;11.83;8.20;;;;;;;;;;5073725;28;20183;-80
2021/12/01 10:06:35;;;;;;;14.47;8.60;;;2.10;99.90;;;;;;5073199;28;20179;-80
2021/12/01 10:09:05;;;;;;;17.00;10.03;;;2.00;99.90;;;;;;5073623;28;20174;-80
2021/12/01 10:11:33;;;;;;;15.90;8.77;;;2.30;99.90;;;;;;5073218;28;20221;-80
2021/12/01 10:14:07;;;;;;;10.13;6.17;;;2.20;99.90;;;;;;5071496;28;20176;-81
2021/12/01 10:16:38;;;;;;;10.47;7.17;;;2.30;99.90;;;;;;5072954;28;20175;-80
2021/12/01 10:19:07;;;;;;;14.23;8.73;;;2.30;99.90;;;;;;5082947;28;20565;-80
2021/12/01 10:21:33;;;;;;;11.27;7.47;;;2.30;99.90;;;;;;5091620;28;20273;-80
2021/12/01 10:24:04;;;;;;;16.10;9.20;;;2.30;99.90;;;;;;5092105;28;20175;-80
2021/12/01 10:26:38;;;;;;;17.03;9.47;;;2.30;99.90;;;;;;5093255;28;20250;-81
2021/12/01 10:29:06;;;;;;;11.93;7.80;;;2.20;99.90;;;;;;5093077;28;20224;-81
2021/12/01 10:31:49;;;;;;;16.73;9.50;;;2.40;99.90;;;;;;5092868;28;20175;-81
2021/12/01 10:34:26;;;;;;;17.40;9.77;;;2.30;99.90;;;;;;5091725;28;20197;-80
2021/12/01 10:37:18;;;;;;;12.67;8.33;;;2.40;99.90;;;;;;5093084;28;20197;-81
2021/12/01 10:40:09;;;;;;;14.60;9.23;;;2.40;99.90;;;;;;5097130;28;20170;-81
2021/12/01 10:42:54;;;;;;;15.83;8.63;;;2.30;99.90;;;;;;5082917;28;20643;-80
2021/12/01 10:45:23;;;;;;;14.07;8.10;;;2.20;99.90;;;;;;5095364;28;20654;-81
2021/12/01 10:47:49;;;;;;;15.60;9.03;;;2.10;99.90;;;;;;5088302;28;20198;-81
2021/12/01 10:50:19;;;;;;;13.27;8.30;;;2.10;99.90;;;;;;5095444;28;20190;-81
2021/12/01 10:53:05;;;;;;;19.00;8.37;;;2.00;99.90;;;;;;5096142;28;20187;-81
2021/12/01 10:55:31;;;;;;;15.27;9.50;;;2.00;99.90;;;;;;5094002;28;20199;-81
2021/12/01 10:58:01;;;;;;;14.00;8.60;;;1.90;99.90;;;;;;5095514;28;20281;-81
2021/12/01 11:00:28;;;;;;;17.23;9.60;;;2.10;99.90;;;;;;5095127;28;20260;-81
2021/12/01 11:03:08;;;;;;;15.80;9.00;;;2.00;99.90;;;;;;5075503;28;20240;-82
2021/12/01 11:05:39;;;;;;;18.87;9.30;;;1.90;99.90;;;;;;5083100;28;20189;-81
2021/12/01 11:08:13;;;;;;;20.77;9.83;;;1.90;99.90;;;;;;5086213;28;20253;-81
2021/12/01 11:10:40;;;;;;;14.93;8.63;;;2.00;99.90;;;;;;5076764;28;20221;-82
2021/12/01 11:13:06;;;;;;;14.63;7.90;;;2.00;99.90;;;;;;5075668;28;20234;-81
2021/12/01 11:15:38;;;;;;;13.47;7.63;;;2.00;99.90;;;;;;5079109;28;20210;-81
2021/12/01 11:18:06;;;;;;;15.27;8.30;;;2.00;99.90;;;;;;5095202;28;20174;-82
2021/12/01 11:20:37;;;;;;;12.77;7.73;;;2.00;99.90;;;;;;5073953;28;20190;-82
2021/12/01 11:23:11;;;;;;;11.70;5.70;;;2.10;99.90;;;;;;5075765;28;20193;-81
2021/12/01 11:25:37;;;;;;;14.70;8.40;;;2.00;99.90;;;;;;5057672;28;20553;-82
2021/12/01 11:28:05;;;;;;;13.87;6.80;;;2.10;99.90;;;;;;5057212;28;20207;-83
2021/12/01 11:30:31;;;;;;;15.03;8.03;;;2.10;99.90;;;;;;5085327;28;20193;-82
2021/12/01 11:32:57;;;;;;;14.97;8.60;;;2.10;99.90;;;;;;5082984;28;20190;-78
2021/12/01 11:35:23;;;;;;;15.47;8.93;;;2.20;99.90;;;;;;5094903;28;20187;-82
2021/12/01 11:37:55;;;;;;;16.07;8.00;;;2.30;99.90;;;;;;5093635;28;20674;-82
2021/12/01 11:40:22;;;;;;;18.33;9.03;;;2.40;99.90;;;;;;5093909;28;20178;-81
2021/12/01 11:42:47;;;;;;;15.80;9.17;;;2.40;99.90;;;;;;5091735;28;20245;-80
2021/12/01 11:45:14;;;;;;;15.63;7.83;;;;;;;;;;5084858;28;20643;-80
2021/12/01 11:47:46;;;;;;;13.20;7.23;;;2.50;99.90;;;;;;5071458;28;20259;-82
2021/12/01 11:50:33;;;;;;;9.70;5.83;;;2.50;99.90;;;;;;5065155;28;20191;-81
2021/12/01 11:53:07;;;;;;;11.07;6.60;;;2.50;99.90;;;;;;5083034;28;20232;-80
2021/12/01 11:55:58;;;;;;;12.20;6.93;;;2.40;99.90;;;;;;5083504;28;20209;-80
2021/12/01 11:59:05;;;;;;;13.87;7.50;;;2.40;99.90;;;;;;5082485;28;20175;-80
2021/12/01 12:01:31;;;;;;;12.87;7.67;;;2.30;99.90;;;;;;5081486;28;20193;-80
2021/12/01 12:04:00;;;;;;;15.03;8.63;;;2.30;99.90;;;;;;5079553;28;20187;-81
2021/12/01 12:06:37;;;;;;;22.40;10.93;;;2.40;99.90;;;;;;5086322;28;20186;-80
2021/12/01 12:09:09;;;;;;;26.20;10.83;;;2.50;99.90;;;;;;5102920;28;20194;-80
2021/12/01 12:11:38;;;;;;;12.97;7.70;;;2.50;99.90;;;;;;5107677;28;20223;-81
2021/12/01 12:14:06;;;;;;;20.30;8.83;;;2.50;99.90;;;;;;5082975;28;20236;-81
2021/12/01 12:16:33;;;;;;;12.97;7.80;;;2.50;99.90;;;;;;5083116;28;20183;-81
2021/12/01 12:18:59;;;;;;;17.97;9.47;;;2.50;99.90;;;;;;5093488;28;20201;-81
2021/12/01 12:24:12;;;;;;;15.47;8.20;;;2.50;99.90;;;;;;5082421;28;20635;-81
2021/12/01 12:26:48;;;;;;;14.07;8.27;;;2.50;99.90;;;;;;5075985;28;20696;-81
2021/12/01 12:29:24;;;;;;;13.60;7.87;;;2.50;99.90;;;;;;5087863;28;20180;-80
2021/12/01 12:31:52;;;;;;;17.33;8.90;;;2.50;99.90;;;;;;5073370;28;20171;-80
2021/12/01 12:34:22;;;;;;;15.93;9.70;;;2.40;99.90;;;;;;5080453;28;20182;-80
2021/12/01 12:36:57;;;;;;;31.50;13.83;;;2.40;99.90;;;;;;5098445;28;20162;-81
2021/12/01 12:39:43;;;;;;;21.60;12.50;;;2.50;99.90;;;;;;5110735;28;20172;-81
2021/12/01 12:42:09;;;;;;;26.70;13.80;;;2.50;99.90;;;;;;5098249;28;20169;-80
2021/12/01 12:44:46;;;;;;;17.90;10.70;;;2.50;99.90;;;;;;5085448;28;20178;-80
2021/12/01 12:47:22;;;;;;;26.67;12.43;;;2.50;99.90;;;;;;5085184;28;20218;-82
2021/12/01 12:49:52;;;;;;;23.40;11.93;;;2.40;99.90;;;;;;5078829;28;20177;-80
2021/12/01 12:52:24;;;;;;;26.03;11.87;;;2.40;99.90;;;;;;5080269;28;20172;-82
2021/12/01 12:55:07;;;;;;;23.77;11.20;;;2.40;99.90;;;;;;5082760;28;20179;-80
2021/12/01 12:57:59;;;;;;;21.30;10.20;;;2.30;99.90;;;;;;5073595;28;20243;-80
2021/12/01 13:00:28;;;;;;;17.83;9.37;;;2.40;99.90;;;;;;5072988;28;20168;-81